sensor_id;sensor_type;location;lat;lon;timestamp;P1;durP1;ratioP1;P2;durP2;ratioP2
14858;SDS011;7521;51.700;6.874;2023-02-04T00:02:13;23.27;;;4.73;;
14858;SDS011;7521;51.700;6.874;2023-02-04T00:05:18;32.45;;;5.20;;
14858;SDS011;7521;51.700;6.874;2023-02-04T00:08:25;31.13;;;5.87;;
14858;SDS011;7521;51.700;6.874;2023-02-04T00:11:31;26.67;;;5.05;;
14858;SDS011;7521;51.700;6.874;2023-02-04T00:14:36;28.73;;;5.37;;
14858;SDS011;7521;51.700;6.874;2023-02-04T00:17:41;29.95;;;4.75;;
14858;SDS011;7521;51.700;6.874;2023-02-04T00:20:46;24.87;;;4.17;;
14858;SDS011;7521;51.700;6.874;2023-02-04T00:23:51;31.13;;;4.60;;
14858;SDS011;7521;51.700;6.874;2023-02-04T00:26:57;22.70;;;4.80;;
14858;SDS011;7521;51.700;6.874;2023-02-04T00:30:03;24.97;;;5.00;;
14858;SDS011;7521;51.700;6.874;2023-02-04T00:33:08;37.03;;;5.03;;
14858;SDS011;7521;51.700;6.874;2023-02-04T00:36:13;33.55;;;4.80;;
14858;SDS011;7521;51.700;6.874;2023-02-04T00:39:18;31.73;;;5.18;;
14858;SDS011;7521;51.700;6.874;2023-02-04T00:42:23;30.13;;;4.93;;
14858;SDS011;7521;51.700;6.874;2023-02-04T00:45:29;25.67;;;4.43;;
14858;SDS011;7521;51.700;6.874;2023-02-04T00:48:34;21.40;;;4.37;;
14858;SDS011;7521;51.700;6.874;2023-02-04T00:51:39;23.50;;;5.17;;
14858;SDS011;7521;51.700;6.874;2023-02-04T00:54:44;31.63;;;5.03;;
14858;SDS011;7521;51.700;6.874;2023-02-04T00:57:50;27.77;;;6.10;;
14858;SDS011;7521;51.700;6.874;2023-02-04T01:00:55;23.43;;;4.80;;
14858;SDS011;7521;51.700;6.874;2023-02-04T01:04:00;26.33;;;5.23;;
14858;SDS011;7521;51.700;6.874;2023-02-04T01:07:06;27.67;;;4.90;;
14858;SDS011;7521;51.700;6.874;2023-02-04T01:10:11;29.43;;;5.33;;
14858;SDS011;7521;51.700;6.874;2023-02-04T01:13:16;31.97;;;5.20;;
14858;SDS011;7521;51.700;6.874;2023-02-04T01:16:21;25.42;;;4.55;;
14858;SDS011;7521;51.700;6.874;2023-02-04T01:19:27;26.10;;;4.83;;
14858;SDS011;7521;51.700;6.874;2023-02-04T01:22:32;23.92;;;5.18;;
14858;SDS011;7521;51.700;6.874;2023-02-04T01:25:37;34.50;;;5.00;;
14858;SDS011;7521;51.700;6.874;2023-02-04T01:28:42;32.60;;;5.00;;
14858;SDS011;7521;51.700;6.874;2023-02-04T01:31:47;27.25;;;4.82;;
14858;SDS011;7521;51.700;6.874;2023-02-04T01:34:52;27.83;;;5.15;;
14858;SDS011;7521;51.700;6.874;2023-02-04T01:37:58;30.83;;;4.85;;
14858;SDS011;7521;51.700;6.874;2023-02-04T01:41:03;26.33;;;5.47;;
14858;SDS011;7521;51.700;6.874;2023-02-04T01:44:09;26.43;;;4.87;;
14858;SDS011;7521;51.700;6.874;2023-02-04T01:47:14;25.23;;;5.03;;
14858;SDS011;7521;51.700;6.874;2023-02-04T01:50:19;30.53;;;4.90;;
14858;SDS011;7521;51.700;6.874;2023-02-04T01:53:24;31.58;;;4.50;;
14858;SDS011;7521;51.700;6.874;2023-02-04T01:56:30;30.43;;;5.53;;
14858;SDS011;7521;51.700;6.874;2023-02-04T01:59:35;32.90;;;5.63;;
14858;SDS011;7521;51.700;6.874;2023-02-04T02:02:46;33.73;;;5.50;;
14858;SDS011;7521;51.700;6.874;2023-02-04T02:05:51;31.00;;;4.80;;
14858;SDS011;7521;51.700;6.874;2023-02-04T02:08:57;32.87;;;5.07;;
14858;SDS011;7521;51.700;6.874;2023-02-04T02:12:03;28.45;;;5.25;;
14858;SDS011;7521;51.700;6.874;2023-02-04T02:15:08;23.83;;;5.37;;
14858;SDS011;7521;51.700;6.874;2023-02-04T02:18:14;27.90;;;5.47;;
14858;SDS011;7521;51.700;6.874;2023-02-04T02:21:54;30.10;;;5.17;;
14858;SDS011;7521;51.700;6.874;2023-02-04T02:24:51;25.33;;;5.47;;
14858;SDS011;7521;51.700;6.874;2023-02-04T02:27:56;27.58;;;5.20;;
14858;SDS011;7521;51.700;6.874;2023-02-04T02:31:02;30.43;;;4.40;;
14858;SDS011;7521;51.700;6.874;2023-02-04T02:34:07;24.00;;;5.47;;
14858;SDS011;7521;51.700;6.874;2023-02-04T02:37:12;22.87;;;4.73;;
14858;SDS011;7521;51.700;6.874;2023-02-04T02:40:18;26.70;;;5.20;;
14858;SDS011;7521;51.700;6.874;2023-02-04T02:43:24;32.37;;;4.90;;
14858;SDS011;7521;51.700;6.874;2023-02-04T02:46:30;30.63;;;5.13;;
14858;SDS011;7521;51.700;6.874;2023-02-04T02:49:35;27.73;;;5.17;;
14858;SDS011;7521;51.700;6.874;2023-02-04T02:52:42;33.03;;;5.07;;
14858;SDS011;7521;51.700;6.874;2023-02-04T02:55:47;36.75;;;5.35;;
14858;SDS011;7521;51.700;6.874;2023-02-04T02:58:52;29.47;;;5.17;;
14858;SDS011;7521;51.700;6.874;2023-02-04T03:01:59;27.67;;;4.67;;
14858;SDS011;7521;51.700;6.874;2023-02-04T03:05:05;36.33;;;4.90;;
14858;SDS011;7521;51.700;6.874;2023-02-04T03:08:10;26.03;;;4.43;;
14858;SDS011;7521;51.700;6.874;2023-02-04T03:11:16;30.80;;;4.47;;
14858;SDS011;7521;51.700;6.874;2023-02-04T03:14:21;40.20;;;5.50;;
14858;SDS011;7521;51.700;6.874;2023-02-04T03:17:28;30.73;;;5.80;;
14858;SDS011;7521;51.700;6.874;2023-02-04T03:20:33;30.60;;;4.95;;
14858;SDS011;7521;51.700;6.874;2023-02-04T03:23:39;27.00;;;4.87;;
14858;SDS011;7521;51.700;6.874;2023-02-04T03:26:44;26.43;;;4.87;;
14858;SDS011;7521;51.700;6.874;2023-02-04T03:29:49;33.50;;;4.65;;
14858;SDS011;7521;51.700;6.874;2023-02-04T03:32:55;32.43;;;5.80;;
14858;SDS011;7521;51.700;6.874;2023-02-04T03:36:00;28.27;;;5.00;;
14858;SDS011;7521;51.700;6.874;2023-02-04T03:39:05;33.70;;;5.03;;
14858;SDS011;7521;51.700;6.874;2023-02-04T03:42:11;35.22;;;5.22;;
14858;SDS011;7521;51.700;6.874;2023-02-04T03:45:16;29.27;;;5.40;;
14858;SDS011;7521;51.700;6.874;2023-02-04T03:48:21;32.50;;;5.25;;
14858;SDS011;7521;51.700;6.874;2023-02-04T03:51:26;30.40;;;5.40;;
14858;SDS011;7521;51.700;6.874;2023-02-04T03:54:31;29.55;;;5.53;;
14858;SDS011;7521;51.700;6.874;2023-02-04T03:57:36;23.27;;;4.72;;
14858;SDS011;7521;51.700;6.874;2023-02-04T04:00:42;18.52;;;4.45;;
14858;SDS011;7521;51.700;6.874;2023-02-04T04:03:47;39.53;;;6.07;;
14858;SDS011;7521;51.700;6.874;2023-02-04T04:06:52;30.90;;;5.20;;
14858;SDS011;7521;51.700;6.874;2023-02-04T04:09:57;35.40;;;6.50;;
14858;SDS011;7521;51.700;6.874;2023-02-04T04:13:03;33.70;;;4.63;;
14858;SDS011;7521;51.700;6.874;2023-02-04T04:16:08;27.93;;;5.10;;
14858;SDS011;7521;51.700;6.874;2023-02-04T04:19:13;34.00;;;5.47;;
14858;SDS011;7521;51.700;6.874;2023-02-04T04:22:18;27.02;;;4.40;;
14858;SDS011;7521;51.700;6.874;2023-02-04T04:25:23;28.92;;;5.47;;
14858;SDS011;7521;51.700;6.874;2023-02-04T04:28:29;30.07;;;5.57;;
14858;SDS011;7521;51.700;6.874;2023-02-04T04:31:34;24.10;;;4.60;;
14858;SDS011;7521;51.700;6.874;2023-02-04T04:34:39;38.20;;;5.57;;
14858;SDS011;7521;51.700;6.874;2023-02-04T04:37:44;26.10;;;4.63;;
14858;SDS011;7521;51.700;6.874;2023-02-04T04:40:49;25.08;;;4.50;;
14858;SDS011;7521;51.700;6.874;2023-02-04T04:43:54;24.40;;;4.47;;
14858;SDS011;7521;51.700;6.874;2023-02-04T04:47:00;27.88;;;5.15;;
14858;SDS011;7521;51.700;6.874;2023-02-04T04:50:05;33.07;;;5.00;;
14858;SDS011;7521;51.700;6.874;2023-02-04T04:53:10;28.47;;;5.63;;
14858;SDS011;7521;51.700;6.874;2023-02-04T04:56:16;28.43;;;4.20;;
14858;SDS011;7521;51.700;6.874;2023-02-04T04:59:23;26.57;;;4.60;;
14858;SDS011;7521;51.700;6.874;2023-02-04T05:02:28;27.63;;;5.03;;
14858;SDS011;7521;51.700;6.874;2023-02-04T05:05:33;28.15;;;4.85;;
14858;SDS011;7521;51.700;6.874;2023-02-04T05:08:43;24.40;;;4.77;;
14858;SDS011;7521;51.700;6.874;2023-02-04T05:11:48;29.87;;;4.63;;
14858;SDS011;7521;51.700;6.874;2023-02-04T05:14:54;27.00;;;4.63;;
14858;SDS011;7521;51.700;6.874;2023-02-04T05:17:59;41.13;;;5.30;;
14858;SDS011;7521;51.700;6.874;2023-02-04T05:21:04;30.05;;;5.30;;
14858;SDS011;7521;51.700;6.874;2023-02-04T05:24:09;25.43;;;4.53;;
14858;SDS011;7521;51.700;6.874;2023-02-04T05:27:14;28.27;;;4.78;;
14858;SDS011;7521;51.700;6.874;2023-02-04T05:30:20;27.57;;;3.57;;
14858;SDS011;7521;51.700;6.874;2023-02-04T05:33:25;29.93;;;5.23;;
14858;SDS011;7521;51.700;6.874;2023-02-04T05:36:31;27.50;;;5.00;;
14858;SDS011;7521;51.700;6.874;2023-02-04T05:39:36;32.45;;;4.65;;
14858;SDS011;7521;51.700;6.874;2023-02-04T05:42:41;27.75;;;5.10;;
14858;SDS011;7521;51.700;6.874;2023-02-04T05:45:46;30.07;;;5.07;;
14858;SDS011;7521;51.700;6.874;2023-02-04T05:48:51;30.23;;;4.07;;
14858;SDS011;7521;51.700;6.874;2023-02-04T05:51:56;31.88;;;5.35;;
14858;SDS011;7521;51.700;6.874;2023-02-04T05:55:02;27.80;;;4.78;;
14858;SDS011;7521;51.700;6.874;2023-02-04T05:58:07;25.53;;;4.87;;
14858;SDS011;7521;51.700;6.874;2023-02-04T06:01:12;23.17;;;4.97;;
14858;SDS011;7521;51.700;6.874;2023-02-04T06:04:17;27.13;;;4.97;;
14858;SDS011;7521;51.700;6.874;2023-02-04T06:07:23;25.90;;;5.10;;
14858;SDS011;7521;51.700;6.874;2023-02-04T06:10:28;36.33;;;5.75;;
14858;SDS011;7521;51.700;6.874;2023-02-04T06:13:34;22.33;;;4.30;;
14858;SDS011;7521;51.700;6.874;2023-02-04T06:16:39;22.15;;;4.38;;
14858;SDS011;7521;51.700;6.874;2023-02-04T06:19:44;29.20;;;5.67;;
14858;SDS011;7521;51.700;6.874;2023-02-04T06:22:50;19.40;;;4.03;;
14858;SDS011;7521;51.700;6.874;2023-02-04T06:25:58;19.07;;;4.97;;
14858;SDS011;7521;51.700;6.874;2023-02-04T06:29:03;28.70;;;5.10;;
14858;SDS011;7521;51.700;6.874;2023-02-04T06:32:08;29.50;;;4.83;;
14858;SDS011;7521;51.700;6.874;2023-02-04T06:35:14;24.55;;;3.97;;
14858;SDS011;7521;51.700;6.874;2023-02-04T06:38:20;22.33;;;4.20;;
14858;SDS011;7521;51.700;6.874;2023-02-04T06:41:25;18.63;;;4.22;;
14858;SDS011;7521;51.700;6.874;2023-02-04T06:44:30;27.00;;;5.13;;
14858;SDS011;7521;51.700;6.874;2023-02-04T06:47:36;17.92;;;3.88;;
14858;SDS011;7521;51.700;6.874;2023-02-04T06:50:41;27.25;;;4.85;;
14858;SDS011;7521;51.700;6.874;2023-02-04T06:53:46;26.37;;;4.03;;
14858;SDS011;7521;51.700;6.874;2023-02-04T06:56:51;23.10;;;3.85;;
14858;SDS011;7521;51.700;6.874;2023-02-04T06:59:56;27.42;;;4.22;;
14858;SDS011;7521;51.700;6.874;2023-02-04T07:03:01;18.58;;;4.35;;
14858;SDS011;7521;51.700;6.874;2023-02-04T07:06:07;19.77;;;4.10;;
14858;SDS011;7521;51.700;6.874;2023-02-04T07:09:12;21.20;;;4.70;;
14858;SDS011;7521;51.700;6.874;2023-02-04T07:12:17;23.67;;;4.07;;
14858;SDS011;7521;51.700;6.874;2023-02-04T07:15:22;19.10;;;3.93;;
14858;SDS011;7521;51.700;6.874;2023-02-04T07:18:27;22.90;;;4.40;;
14858;SDS011;7521;51.700;6.874;2023-02-04T07:21:33;26.48;;;4.60;;
14858;SDS011;7521;51.700;6.874;2023-02-04T07:24:38;23.63;;;4.10;;
14858;SDS011;7521;51.700;6.874;2023-02-04T07:27:43;22.47;;;4.17;;
14858;SDS011;7521;51.700;6.874;2023-02-04T07:30:48;20.40;;;3.60;;
14858;SDS011;7521;51.700;6.874;2023-02-04T07:33:54;33.33;;;4.93;;
14858;SDS011;7521;51.700;6.874;2023-02-04T07:37:02;19.27;;;3.73;;
14858;SDS011;7521;51.700;6.874;2023-02-04T07:40:08;18.03;;;3.93;;
14858;SDS011;7521;51.700;6.874;2023-02-04T07:43:13;19.53;;;4.03;;
14858;SDS011;7521;51.700;6.874;2023-02-04T07:46:18;24.63;;;5.30;;
14858;SDS011;7521;51.700;6.874;2023-02-04T07:49:23;31.08;;;5.70;;
14858;SDS011;7521;51.700;6.874;2023-02-04T07:52:28;17.92;;;4.18;;
14858;SDS011;7521;51.700;6.874;2023-02-04T07:55:34;28.75;;;5.00;;
14858;SDS011;7521;51.700;6.874;2023-02-04T07:58:39;18.73;;;4.32;;
14858;SDS011;7521;51.700;6.874;2023-02-04T08:01:44;28.23;;;5.40;;
14858;SDS011;7521;51.700;6.874;2023-02-04T08:04:51;34.13;;;6.33;;
14858;SDS011;7521;51.700;6.874;2023-02-04T08:07:57;30.00;;;5.17;;
14858;SDS011;7521;51.700;6.874;2023-02-04T08:11:02;23.70;;;4.83;;
14858;SDS011;7521;51.700;6.874;2023-02-04T08:14:07;20.80;;;4.30;;
14858;SDS011;7521;51.700;6.874;2023-02-04T08:17:12;27.07;;;5.53;;
14858;SDS011;7521;51.700;6.874;2023-02-04T08:20:18;25.05;;;5.85;;
14858;SDS011;7521;51.700;6.874;2023-02-04T08:23:23;26.83;;;5.23;;
14858;SDS011;7521;51.700;6.874;2023-02-04T08:26:28;25.63;;;4.80;;
14858;SDS011;7521;51.700;6.874;2023-02-04T08:29:33;29.80;;;5.63;;
14858;SDS011;7521;51.700;6.874;2023-02-04T08:32:39;20.87;;;4.53;;
14858;SDS011;7521;51.700;6.874;2023-02-04T08:35:44;33.37;;;5.20;;
14858;SDS011;7521;51.700;6.874;2023-02-04T08:38:49;29.98;;;5.63;;
14858;SDS011;7521;51.700;6.874;2023-02-04T08:41:54;30.88;;;5.53;;
14858;SDS011;7521;51.700;6.874;2023-02-04T08:45:00;29.98;;;6.13;;
14858;SDS011;7521;51.700;6.874;2023-02-04T08:48:05;34.23;;;6.67;;
14858;SDS011;7521;51.700;6.874;2023-02-04T08:51:11;26.47;;;4.50;;
14858;SDS011;7521;51.700;6.874;2023-02-04T08:54:16;34.25;;;5.10;;
14858;SDS011;7521;51.700;6.874;2023-02-04T08:57:22;29.60;;;5.03;;
14858;SDS011;7521;51.700;6.874;2023-02-04T09:00:27;23.27;;;5.20;;
14858;SDS011;7521;51.700;6.874;2023-02-04T09:03:32;24.33;;;4.10;;
14858;SDS011;7521;51.700;6.874;2023-02-04T09:06:37;27.42;;;5.43;;
14858;SDS011;7521;51.700;6.874;2023-02-04T09:09:43;30.33;;;4.83;;
14858;SDS011;7521;51.700;6.874;2023-02-04T09:12:48;34.20;;;4.88;;
14858;SDS011;7521;51.700;6.874;2023-02-04T09:15:53;36.03;;;5.33;;
14858;SDS011;7521;51.700;6.874;2023-02-04T09:18:58;36.03;;;5.40;;
14858;SDS011;7521;51.700;6.874;2023-02-04T09:22:03;40.42;;;5.53;;
14858;SDS011;7521;51.700;6.874;2023-02-04T09:25:08;34.03;;;5.13;;
14858;SDS011;7521;51.700;6.874;2023-02-04T09:28:14;36.80;;;5.60;;
14858;SDS011;7521;51.700;6.874;2023-02-04T09:31:20;32.83;;;5.77;;
14858;SDS011;7521;51.700;6.874;2023-02-04T09:34:26;33.23;;;5.33;;
14858;SDS011;7521;51.700;6.874;2023-02-04T09:37:31;33.27;;;8.13;;
14858;SDS011;7521;51.700;6.874;2023-02-04T09:40:37;28.77;;;5.90;;
14858;SDS011;7521;51.700;6.874;2023-02-04T09:43:45;32.70;;;12.77;;
14858;SDS011;7521;51.700;6.874;2023-02-04T09:46:51;38.30;;;9.53;;
14858;SDS011;7521;51.700;6.874;2023-02-04T09:49:56;35.60;;;6.20;;
14858;SDS011;7521;51.700;6.874;2023-02-04T09:53:03;35.43;;;7.37;;
14858;SDS011;7521;51.700;6.874;2023-02-04T09:56:09;38.50;;;6.50;;
14858;SDS011;7521;51.700;6.874;2023-02-04T09:59:16;42.33;;;8.90;;
14858;SDS011;7521;51.700;6.874;2023-02-04T10:02:23;39.17;;;6.27;;
14858;SDS011;7521;51.700;6.874;2023-02-04T10:05:29;40.30;;;8.83;;
14858;SDS011;7521;51.700;6.874;2023-02-04T10:08:35;43.57;;;8.20;;
14858;SDS011;7521;51.700;6.874;2023-02-04T10:11:40;36.97;;;9.30;;
14858;SDS011;7521;51.700;6.874;2023-02-04T10:14:46;37.03;;;6.77;;
14858;SDS011;7521;51.700;6.874;2023-02-04T10:17:57;41.33;;;7.07;;
14858;SDS011;7521;51.700;6.874;2023-02-04T10:24:17;36.22;;;6.68;;
14858;SDS011;7521;51.700;6.874;2023-02-04T10:27:23;36.60;;;7.37;;
14858;SDS011;7521;51.700;6.874;2023-02-04T10:30:30;35.50;;;6.67;;
14858;SDS011;7521;51.700;6.874;2023-02-04T10:33:39;29.73;;;6.20;;
14858;SDS011;7521;51.700;6.874;2023-02-04T10:36:45;35.80;;;6.93;;
14858;SDS011;7521;51.700;6.874;2023-02-04T10:39:50;46.50;;;8.00;;
14858;SDS011;7521;51.700;6.874;2023-02-04T10:42:56;33.63;;;7.13;;
14858;SDS011;7521;51.700;6.874;2023-02-04T10:46:01;39.47;;;6.67;;
14858;SDS011;7521;51.700;6.874;2023-02-04T10:49:17;29.30;;;6.63;;
14858;SDS011;7521;51.700;6.874;2023-02-04T10:52:25;35.03;;;6.27;;
14858;SDS011;7521;51.700;6.874;2023-02-04T10:55:33;40.47;;;6.47;;
14858;SDS011;7521;51.700;6.874;2023-02-04T10:58:39;39.30;;;8.10;;
14858;SDS011;7521;51.700;6.874;2023-02-04T11:01:44;40.83;;;9.77;;
14858;SDS011;7521;51.700;6.874;2023-02-04T11:04:49;30.27;;;10.82;;
14858;SDS011;7521;51.700;6.874;2023-02-04T11:07:54;36.70;;;6.70;;
14858;SDS011;7521;51.700;6.874;2023-02-04T11:11:00;90.30;;;31.47;;
14858;SDS011;7521;51.700;6.874;2023-02-04T11:14:21;58.83;;;20.37;;
14858;SDS011;7521;51.700;6.874;2023-02-04T11:17:30;31.80;;;7.27;;
14858;SDS011;7521;51.700;6.874;2023-02-04T11:20:35;27.40;;;6.63;;
14858;SDS011;7521;51.700;6.874;2023-02-04T11:23:44;35.67;;;8.70;;
14858;SDS011;7521;51.700;6.874;2023-02-04T11:27:03;32.30;;;6.93;;
14858;SDS011;7521;51.700;6.874;2023-02-04T11:30:19;28.70;;;6.60;;
14858;SDS011;7521;51.700;6.874;2023-02-04T11:33:24;35.23;;;6.07;;
14858;SDS011;7521;51.700;6.874;2023-02-04T11:39:56;36.67;;;6.00;;
14858;SDS011;7521;51.700;6.874;2023-02-04T11:43:09;34.17;;;6.73;;
14858;SDS011;7521;51.700;6.874;2023-02-04T11:46:15;32.60;;;6.97;;
14858;SDS011;7521;51.700;6.874;2023-02-04T11:49:21;33.33;;;6.63;;
14858;SDS011;7521;51.700;6.874;2023-02-04T11:52:27;40.87;;;7.53;;
14858;SDS011;7521;51.700;6.874;2023-02-04T11:55:34;33.53;;;6.50;;
14858;SDS011;7521;51.700;6.874;2023-02-04T11:58:39;29.67;;;6.03;;
14858;SDS011;7521;51.700;6.874;2023-02-04T12:01:45;27.80;;;7.47;;
14858;SDS011;7521;51.700;6.874;2023-02-04T12:04:52;32.40;;;6.20;;
14858;SDS011;7521;51.700;6.874;2023-02-04T12:08:07;43.63;;;7.00;;
14858;SDS011;7521;51.700;6.874;2023-02-04T12:11:23;37.07;;;6.57;;
14858;SDS011;7521;51.700;6.874;2023-02-04T12:14:33;45.50;;;9.60;;
14858;SDS011;7521;51.700;6.874;2023-02-04T12:17:38;37.70;;;7.17;;
14858;SDS011;7521;51.700;6.874;2023-02-04T12:20:43;31.45;;;7.70;;
14858;SDS011;7521;51.700;6.874;2023-02-04T12:23:48;45.65;;;6.47;;
14858;SDS011;7521;51.700;6.874;2023-02-04T12:26:53;40.85;;;8.00;;
14858;SDS011;7521;51.700;6.874;2023-02-04T12:29:59;40.75;;;8.45;;
14858;SDS011;7521;51.700;6.874;2023-02-04T12:33:04;32.70;;;7.43;;
14858;SDS011;7521;51.700;6.874;2023-02-04T12:36:09;32.28;;;8.57;;
14858;SDS011;7521;51.700;6.874;2023-02-04T12:39:14;58.88;;;20.00;;
14858;SDS011;7521;51.700;6.874;2023-02-04T12:42:19;65.28;;;24.15;;
14858;SDS011;7521;51.700;6.874;2023-02-04T12:45:24;32.60;;;9.23;;
14858;SDS011;7521;51.700;6.874;2023-02-04T12:48:30;26.27;;;5.63;;
14858;SDS011;7521;51.700;6.874;2023-02-04T12:51:35;22.93;;;4.60;;
14858;SDS011;7521;51.700;6.874;2023-02-04T12:54:40;27.20;;;5.57;;
14858;SDS011;7521;51.700;6.874;2023-02-04T12:57:45;57.03;;;20.90;;
14858;SDS011;7521;51.700;6.874;2023-02-04T13:00:50;67.68;;;26.25;;
14858;SDS011;7521;51.700;6.874;2023-02-04T13:03:55;31.73;;;8.68;;
14858;SDS011;7521;51.700;6.874;2023-02-04T13:07:02;41.57;;;16.37;;
14858;SDS011;7521;51.700;6.874;2023-02-04T13:10:08;26.20;;;6.53;;
14858;SDS011;7521;51.700;6.874;2023-02-04T13:13:13;23.53;;;4.47;;
14858;SDS011;7521;51.700;6.874;2023-02-04T13:16:18;20.75;;;4.82;;
14858;SDS011;7521;51.700;6.874;2023-02-04T13:19:26;26.00;;;4.40;;
14858;SDS011;7521;51.700;6.874;2023-02-04T13:22:31;30.60;;;4.82;;
14858;SDS011;7521;51.700;6.874;2023-02-04T13:25:37;23.00;;;4.90;;
14858;SDS011;7521;51.700;6.874;2023-02-04T13:28:42;25.43;;;4.47;;
14858;SDS011;7521;51.700;6.874;2023-02-04T13:31:47;27.08;;;4.70;;
14858;SDS011;7521;51.700;6.874;2023-02-04T13:34:52;27.70;;;5.07;;
14858;SDS011;7521;51.700;6.874;2023-02-04T13:37:57;25.20;;;4.82;;
14858;SDS011;7521;51.700;6.874;2023-02-04T13:41:03;25.13;;;4.73;;
14858;SDS011;7521;51.700;6.874;2023-02-04T13:44:08;26.33;;;6.23;;
14858;SDS011;7521;51.700;6.874;2023-02-04T13:47:13;41.70;;;22.33;;
14858;SDS011;7521;51.700;6.874;2023-02-04T13:50:18;44.70;;;20.53;;
14858;SDS011;7521;51.700;6.874;2023-02-04T13:53:24;26.00;;;9.93;;
14858;SDS011;7521;51.700;6.874;2023-02-04T13:56:34;31.30;;;6.33;;
14858;SDS011;7521;51.700;6.874;2023-02-04T13:59:41;30.63;;;12.23;;
14858;SDS011;7521;51.700;6.874;2023-02-04T14:02:46;30.17;;;7.47;;
14858;SDS011;7521;51.700;6.874;2023-02-04T14:05:52;25.00;;;4.47;;
14858;SDS011;7521;51.700;6.874;2023-02-04T14:08:58;27.90;;;4.50;;
14858;SDS011;7521;51.700;6.874;2023-02-04T14:12:04;20.23;;;3.80;;
14858;SDS011;7521;51.700;6.874;2023-02-04T14:15:09;25.93;;;5.10;;
14858;SDS011;7521;51.700;6.874;2023-02-04T14:18:14;22.70;;;4.63;;
14858;SDS011;7521;51.700;6.874;2023-02-04T14:21:20;22.80;;;4.00;;
14858;SDS011;7521;51.700;6.874;2023-02-04T14:24:25;19.30;;;4.23;;
14858;SDS011;7521;51.700;6.874;2023-02-04T14:27:30;17.77;;;3.88;;
14858;SDS011;7521;51.700;6.874;2023-02-04T14:30:36;16.27;;;3.63;;
14858;SDS011;7521;51.700;6.874;2023-02-04T14:33:41;19.70;;;4.07;;
14858;SDS011;7521;51.700;6.874;2023-02-04T14:36:47;19.97;;;4.13;;
14858;SDS011;7521;51.700;6.874;2023-02-04T14:39:52;21.75;;;4.63;;
14858;SDS011;7521;51.700;6.874;2023-02-04T14:42:57;25.15;;;3.97;;
14858;SDS011;7521;51.700;6.874;2023-02-04T14:46:03;27.25;;;4.97;;
14858;SDS011;7521;51.700;6.874;2023-02-04T14:49:08;26.27;;;4.50;;
14858;SDS011;7521;51.700;6.874;2023-02-04T14:52:14;25.17;;;4.50;;
14858;SDS011;7521;51.700;6.874;2023-02-04T14:55:19;23.07;;;4.23;;
14858;SDS011;7521;51.700;6.874;2023-02-04T14:58:24;22.37;;;4.53;;
14858;SDS011;7521;51.700;6.874;2023-02-04T15:01:30;31.27;;;4.80;;
14858;SDS011;7521;51.700;6.874;2023-02-04T15:04:35;18.53;;;4.83;;
14858;SDS011;7521;51.700;6.874;2023-02-04T15:07:41;24.70;;;5.13;;
14858;SDS011;7521;51.700;6.874;2023-02-04T15:10:46;27.30;;;7.83;;
14858;SDS011;7521;51.700;6.874;2023-02-04T15:13:51;23.87;;;5.73;;
14858;SDS011;7521;51.700;6.874;2023-02-04T15:16:56;22.83;;;4.72;;
14858;SDS011;7521;51.700;6.874;2023-02-04T15:20:02;35.40;;;10.75;;
14858;SDS011;7521;51.700;6.874;2023-02-04T15:23:08;27.97;;;7.17;;
14858;SDS011;7521;51.700;6.874;2023-02-04T15:26:16;21.77;;;6.40;;
14858;SDS011;7521;51.700;6.874;2023-02-04T15:29:22;37.35;;;12.98;;
14858;SDS011;7521;51.700;6.874;2023-02-04T15:32:27;27.90;;;5.47;;
14858;SDS011;7521;51.700;6.874;2023-02-04T15:35:32;22.70;;;6.73;;
14858;SDS011;7521;51.700;6.874;2023-02-04T15:38:37;19.92;;;4.40;;
14858;SDS011;7521;51.700;6.874;2023-02-04T15:41:42;26.10;;;5.22;;
14858;SDS011;7521;51.700;6.874;2023-02-04T15:44:48;26.23;;;4.60;;
14858;SDS011;7521;51.700;6.874;2023-02-04T15:47:53;21.80;;;3.88;;
14858;SDS011;7521;51.700;6.874;2023-02-04T15:50:58;25.93;;;5.80;;
14858;SDS011;7521;51.700;6.874;2023-02-04T15:54:03;19.60;;;4.70;;
14858;SDS011;7521;51.700;6.874;2023-02-04T15:57:08;20.60;;;3.83;;
14858;SDS011;7521;51.700;6.874;2023-02-04T16:00:14;25.50;;;5.50;;
14858;SDS011;7521;51.700;6.874;2023-02-04T16:03:19;20.40;;;6.33;;
14858;SDS011;7521;51.700;6.874;2023-02-04T16:06:24;26.48;;;5.82;;
14858;SDS011;7521;51.700;6.874;2023-02-04T16:09:29;24.90;;;4.87;;
14858;SDS011;7521;51.700;6.874;2023-02-04T16:12:35;25.92;;;6.78;;
14858;SDS011;7521;51.700;6.874;2023-02-04T16:15:40;16.13;;;4.87;;
14858;SDS011;7521;51.700;6.874;2023-02-04T16:18:45;23.42;;;5.28;;
14858;SDS011;7521;51.700;6.874;2023-02-04T16:21:50;21.55;;;5.15;;
14858;SDS011;7521;51.700;6.874;2023-02-04T16:24:55;25.97;;;6.80;;
14858;SDS011;7521;51.700;6.874;2023-02-04T16:28:01;30.60;;;10.30;;
14858;SDS011;7521;51.700;6.874;2023-02-04T16:31:06;29.60;;;6.33;;
14858;SDS011;7521;51.700;6.874;2023-02-04T16:34:13;23.10;;;5.10;;
14858;SDS011;7521;51.700;6.874;2023-02-04T16:37:19;18.33;;;3.33;;
14858;SDS011;7521;51.700;6.874;2023-02-04T16:40:24;16.48;;;4.07;;
14858;SDS011;7521;51.700;6.874;2023-02-04T16:43:29;21.80;;;4.65;;
14858;SDS011;7521;51.700;6.874;2023-02-04T16:46:34;14.83;;;3.33;;
14858;SDS011;7521;51.700;6.874;2023-02-04T16:49:39;24.38;;;4.15;;
14858;SDS011;7521;51.700;6.874;2023-02-04T16:52:44;26.17;;;5.43;;
14858;SDS011;7521;51.700;6.874;2023-02-04T16:55:50;30.50;;;5.05;;
14858;SDS011;7521;51.700;6.874;2023-02-04T16:58:55;16.10;;;3.95;;
14858;SDS011;7521;51.700;6.874;2023-02-04T17:02:00;22.65;;;4.57;;
14858;SDS011;7521;51.700;6.874;2023-02-04T17:05:05;28.95;;;9.02;;
14858;SDS011;7521;51.700;6.874;2023-02-04T17:08:10;48.13;;;14.97;;
14858;SDS011;7521;51.700;6.874;2023-02-04T17:11:16;50.78;;;18.00;;
14858;SDS011;7521;51.700;6.874;2023-02-04T17:14:33;44.73;;;16.57;;
14858;SDS011;7521;51.700;6.874;2023-02-04T17:17:38;25.70;;;5.60;;
14858;SDS011;7521;51.700;6.874;2023-02-04T17:20:43;20.58;;;5.22;;
14858;SDS011;7521;51.700;6.874;2023-02-04T17:23:49;21.23;;;3.75;;
14858;SDS011;7521;51.700;6.874;2023-02-04T17:26:54;14.87;;;4.03;;
14858;SDS011;7521;51.700;6.874;2023-02-04T17:29:59;20.33;;;5.20;;
14858;SDS011;7521;51.700;6.874;2023-02-04T17:33:04;21.93;;;5.63;;
14858;SDS011;7521;51.700;6.874;2023-02-04T17:36:10;32.70;;;10.10;;
14858;SDS011;7521;51.700;6.874;2023-02-04T17:39:17;25.17;;;8.60;;
14858;SDS011;7521;51.700;6.874;2023-02-04T17:42:22;36.88;;;12.82;;
14858;SDS011;7521;51.700;6.874;2023-02-04T17:45:28;42.13;;;16.38;;
14858;SDS011;7521;51.700;6.874;2023-02-04T17:48:33;50.63;;;22.20;;
14858;SDS011;7521;51.700;6.874;2023-02-04T17:51:38;65.80;;;21.77;;
14858;SDS011;7521;51.700;6.874;2023-02-04T17:54:43;65.40;;;21.77;;
14858;SDS011;7521;51.700;6.874;2023-02-04T17:57:49;56.40;;;18.65;;
14858;SDS011;7521;51.700;6.874;2023-02-04T18:00:54;33.53;;;7.23;;
14858;SDS011;7521;51.700;6.874;2023-02-04T18:04:01;23.87;;;5.23;;
14858;SDS011;7521;51.700;6.874;2023-02-04T18:07:07;27.40;;;5.00;;
14858;SDS011;7521;51.700;6.874;2023-02-04T18:13:23;24.30;;;5.10;;
14858;SDS011;7521;51.700;6.874;2023-02-04T18:16:30;22.37;;;5.47;;
14858;SDS011;7521;51.700;6.874;2023-02-04T18:19:35;25.40;;;5.00;;
14858;SDS011;7521;51.700;6.874;2023-02-04T18:22:44;25.03;;;5.50;;
14858;SDS011;7521;51.700;6.874;2023-02-04T18:25:49;17.43;;;5.13;;
14858;SDS011;7521;51.700;6.874;2023-02-04T18:28:55;31.77;;;8.97;;
14858;SDS011;7521;51.700;6.874;2023-02-04T18:32:01;29.53;;;8.90;;
14858;SDS011;7521;51.700;6.874;2023-02-04T18:35:24;34.83;;;12.63;;
14858;SDS011;7521;51.700;6.874;2023-02-04T18:38:38;39.17;;;14.17;;
14858;SDS011;7521;51.700;6.874;2023-02-04T18:41:44;40.67;;;17.50;;
14858;SDS011;7521;51.700;6.874;2023-02-04T18:44:51;46.40;;;18.90;;
14858;SDS011;7521;51.700;6.874;2023-02-04T18:47:59;25.93;;;11.03;;